Moses Lake, WA

8:47 AM PST on November 26, 2014 (GMT -0800)
HADS CRAB CREEK NEAR MOSES LAKE 4N WA US USGS | Change Station
CLOSE
Current Station
Personal Weather Station
Location: Moses Lake, WA
Elevation: 1069 ft
Nearby Weather Stations

Elev 1069 ft 47.19 °N, 119.26 °W | Updated 106 days ago

Mostly Cloudy
Mostly Cloudy
41 °F
Feels Like 41 °F
N
7
Wind Variable Wind from SSW
Gusts mph

Today
High -- | Low -- °F
--% Chance of Precip.
Yesterday
High -- | Low -- °F
Precip. -- in
7:16 AM 4:11 PM
Waxing Crescent, 21% visible
Pressure 30.19 in
Visibility 0.5 miles
Clouds
Dew Point 36 °F
Humidity 85%
Rainfall -999.00 in
Snow Depth Not available.
UV Not available.
Pollen .90 out of 12
Air Quality Not available.
Flu Activity Not available.
SPECI KMWH 261633Z 00000KT 1/2SM R32R/2800V4000FT FG VV003 03/02 A3019 RMK AO2 T00280022

More Conditions Fewer Conditions

Pressure 30.19 in
Visibility 0.5 miles
Clouds
Dew Point 36 °F
Humidity 85%
Rainfall -999.00 in
Snow Depth Not available.
UV Not available.
Pollen .90 out of 12
Air Quality Not available.
Flu Activity Not available.
SPECI KMWH 261633Z 00000KT 1/2SM R32R/2800V4000FT FG VV003 03/02 A3019 RMK AO2 T00280022

More Conditions Fewer Conditions

Nowcast | as of 8:46 am PST on November 26, 2014

Areas of thick fog will reduce visibilities to a quarter mile or less in portions of central and eastern Washington this morning. Parts of Interstate 90 from Ritzville to Spokane will be foggy through 10 am. Other highways that will have limited visibility will be Highway 2 from Airway Heights to Coulee City to Mansfield. Portions of Highway 97 from Wenatchee to Omak may also be foggy.

×

10-Day Weather Forecast

Almanac

Astronomy

Nov. 26, 2014 Rise Set
Actual Time
Civil Twilight
Nautical Twilight
Astronomical Twilight
Moon
Length of Visible Light
Length of Day
Tomorrow will be .
, % of the Moon is Illuminated

Today's Extremes

State Highs State Lows

Community

WunderPhotos

Upload Photos

1,773,793 photos uploaded!

WunderBlogs® & News

Nearby

Air Quality

  Air Quality AQ Index Pollutant
Not available.

Snow Depth

Station Depth Elevation

Earthquake Activity

City Distance Mag. Time & Date
Minimum magnitude displayed is 2.5.

Coastal Water Temperatures

Place Temperature

Nearby Weather Stations